sensor_id;sensor_type;location;lat;lon;timestamp;P1;durP1;ratioP1;P2;durP2;ratioP2
66487;SDS011;53304;54.550;18.526;2023-11-22T00:00:41;5.53;;;2.67;;
66487;SDS011;53304;54.550;18.526;2023-11-22T00:03:07;10.90;;;2.95;;
66487;SDS011;53304;54.550;18.526;2023-11-22T00:05:32;5.82;;;2.88;;
66487;SDS011;53304;54.550;18.526;2023-11-22T00:08:00;6.35;;;3.08;;
66487;SDS011;53304;54.550;18.526;2023-11-22T00:10:28;6.68;;;3.42;;
66487;SDS011;53304;54.550;18.526;2023-11-22T00:12:55;6.25;;;3.47;;
66487;SDS011;53304;54.550;18.526;2023-11-22T00:15:23;7.47;;;4.00;;
66487;SDS011;53304;54.550;18.526;2023-11-22T00:17:51;7.70;;;4.28;;
66487;SDS011;53304;54.550;18.526;2023-11-22T00:20:20;7.65;;;4.05;;
66487;SDS011;53304;54.550;18.526;2023-11-22T00:22:48;7.55;;;3.70;;
66487;SDS011;53304;54.550;18.526;2023-11-22T00:25:13;7.88;;;4.18;;
66487;SDS011;53304;54.550;18.526;2023-11-22T00:27:41;8.13;;;4.32;;
66487;SDS011;53304;54.550;18.526;2023-11-22T00:30:12;8.05;;;4.25;;
66487;SDS011;53304;54.550;18.526;2023-11-22T00:32:39;8.38;;;4.07;;
66487;SDS011;53304;54.550;18.526;2023-11-22T00:35:05;8.65;;;4.50;;
66487;SDS011;53304;54.550;18.526;2023-11-22T00:37:32;11.07;;;5.10;;
66487;SDS011;53304;54.550;18.526;2023-11-22T00:39:59;8.55;;;4.60;;
66487;SDS011;53304;54.550;18.526;2023-11-22T00:42:37;11.55;;;4.95;;
66487;SDS011;53304;54.550;18.526;2023-11-22T00:45:04;8.88;;;5.03;;
66487;SDS011;53304;54.550;18.526;2023-11-22T00:47:34;10.25;;;4.95;;
66487;SDS011;53304;54.550;18.526;2023-11-22T00:50:00;10.25;;;5.15;;
66487;SDS011;53304;54.550;18.526;2023-11-22T00:52:26;8.80;;;4.93;;
66487;SDS011;53304;54.550;18.526;2023-11-22T00:54:52;8.77;;;5.13;;
66487;SDS011;53304;54.550;18.526;2023-11-22T00:57:25;10.43;;;5.75;;
66487;SDS011;53304;54.550;18.526;2023-11-22T00:59:55;9.90;;;5.50;;
66487;SDS011;53304;54.550;18.526;2023-11-22T01:02:20;9.75;;;5.63;;
66487;SDS011;53304;54.550;18.526;2023-11-22T01:04:48;10.23;;;5.43;;
66487;SDS011;53304;54.550;18.526;2023-11-22T01:07:13;10.13;;;5.95;;
66487;SDS011;53304;54.550;18.526;2023-11-22T01:09:38;10.30;;;5.65;;
66487;SDS011;53304;54.550;18.526;2023-11-22T01:12:04;10.57;;;5.88;;
66487;SDS011;53304;54.550;18.526;2023-11-22T01:14:34;10.80;;;5.55;;
66487;SDS011;53304;54.550;18.526;2023-11-22T01:16:59;10.70;;;6.13;;
66487;SDS011;53304;54.550;18.526;2023-11-22T01:19:24;11.32;;;5.68;;
66487;SDS011;53304;54.550;18.526;2023-11-22T01:21:53;11.60;;;6.15;;
66487;SDS011;53304;54.550;18.526;2023-11-22T01:24:18;10.93;;;6.35;;
66487;SDS011;53304;54.550;18.526;2023-11-22T01:26:46;12.25;;;6.15;;
66487;SDS011;53304;54.550;18.526;2023-11-22T01:29:13;12.10;;;6.72;;
66487;SDS011;53304;54.550;18.526;2023-11-22T01:31:39;12.88;;;6.75;;
66487;SDS011;53304;54.550;18.526;2023-11-22T01:34:04;11.57;;;6.13;;
66487;SDS011;53304;54.550;18.526;2023-11-22T01:36:32;10.80;;;6.00;;
66487;SDS011;53304;54.550;18.526;2023-11-22T01:38:57;11.27;;;6.50;;
66487;SDS011;53304;54.550;18.526;2023-11-22T01:41:22;10.23;;;6.18;;
66487;SDS011;53304;54.550;18.526;2023-11-22T01:43:50;11.93;;;6.32;;
66487;SDS011;53304;54.550;18.526;2023-11-22T01:46:21;10.38;;;5.78;;
66487;SDS011;53304;54.550;18.526;2023-11-22T01:48:51;11.52;;;5.97;;
66487;SDS011;53304;54.550;18.526;2023-11-22T01:51:20;12.35;;;6.40;;
66487;SDS011;53304;54.550;18.526;2023-11-22T01:53:50;10.93;;;5.97;;
66487;SDS011;53304;54.550;18.526;2023-11-22T01:56:19;9.93;;;6.25;;
66487;SDS011;53304;54.550;18.526;2023-11-22T01:58:45;11.90;;;6.15;;
66487;SDS011;53304;54.550;18.526;2023-11-22T02:01:20;11.57;;;6.35;;
66487;SDS011;53304;54.550;18.526;2023-11-22T02:03:48;12.00;;;5.97;;
66487;SDS011;53304;54.550;18.526;2023-11-22T02:06:15;10.82;;;5.70;;
66487;SDS011;53304;54.550;18.526;2023-11-22T02:08:43;9.60;;;5.40;;
66487;SDS011;53304;54.550;18.526;2023-11-22T02:11:09;11.15;;;5.85;;
66487;SDS011;53304;54.550;18.526;2023-11-22T02:13:34;10.60;;;5.75;;
66487;SDS011;53304;54.550;18.526;2023-11-22T02:16:00;11.27;;;5.97;;
66487;SDS011;53304;54.550;18.526;2023-11-22T02:18:28;11.13;;;5.80;;
66487;SDS011;53304;54.550;18.526;2023-11-22T02:20:57;10.10;;;5.57;;
66487;SDS011;53304;54.550;18.526;2023-11-22T02:23:22;8.30;;;5.30;;
66487;SDS011;53304;54.550;18.526;2023-11-22T02:25:56;8.30;;;5.50;;
66487;SDS011;53304;54.550;18.526;2023-11-22T02:28:24;10.13;;;5.82;;
66487;SDS011;53304;54.550;18.526;2023-11-22T02:30:49;10.05;;;5.40;;
66487;SDS011;53304;54.550;18.526;2023-11-22T02:33:17;9.18;;;5.22;;
66487;SDS011;53304;54.550;18.526;2023-11-22T02:35:42;11.00;;;5.47;;
66487;SDS011;53304;54.550;18.526;2023-11-22T02:38:08;10.55;;;5.82;;
66487;SDS011;53304;54.550;18.526;2023-11-22T02:40:33;9.32;;;5.30;;
66487;SDS011;53304;54.550;18.526;2023-11-22T02:42:58;9.75;;;5.20;;
66487;SDS011;53304;54.550;18.526;2023-11-22T02:45:30;10.02;;;5.55;;
66487;SDS011;53304;54.550;18.526;2023-11-22T02:47:58;8.80;;;5.13;;
66487;SDS011;53304;54.550;18.526;2023-11-22T02:50:26;9.90;;;5.55;;
66487;SDS011;53304;54.550;18.526;2023-11-22T02:52:55;10.45;;;5.30;;
66487;SDS011;53304;54.550;18.526;2023-11-22T02:55:20;11.70;;;6.25;;
66487;SDS011;53304;54.550;18.526;2023-11-22T02:57:45;9.55;;;5.40;;
66487;SDS011;53304;54.550;18.526;2023-11-22T03:00:11;9.75;;;5.68;;
66487;SDS011;53304;54.550;18.526;2023-11-22T03:02:39;10.57;;;6.05;;
66487;SDS011;53304;54.550;18.526;2023-11-22T03:05:08;10.48;;;5.85;;
66487;SDS011;53304;54.550;18.526;2023-11-22T03:07:36;10.40;;;5.55;;
66487;SDS011;53304;54.550;18.526;2023-11-22T03:10:02;10.10;;;5.72;;
66487;SDS011;53304;54.550;18.526;2023-11-22T03:12:33;9.05;;;5.18;;
66487;SDS011;53304;54.550;18.526;2023-11-22T03:14:59;9.88;;;5.50;;
66487;SDS011;53304;54.550;18.526;2023-11-22T03:17:29;10.70;;;5.55;;
66487;SDS011;53304;54.550;18.526;2023-11-22T03:19:58;9.38;;;5.25;;
66487;SDS011;53304;54.550;18.526;2023-11-22T03:22:24;9.07;;;5.25;;
66487;SDS011;53304;54.550;18.526;2023-11-22T03:24:50;8.95;;;4.88;;
66487;SDS011;53304;54.550;18.526;2023-11-22T03:27:15;10.38;;;5.07;;
66487;SDS011;53304;54.550;18.526;2023-11-22T03:29:41;8.82;;;4.97;;
66487;SDS011;53304;54.550;18.526;2023-11-22T03:32:07;9.05;;;5.20;;
66487;SDS011;53304;54.550;18.526;2023-11-22T03:34:32;9.10;;;4.95;;
66487;SDS011;53304;54.550;18.526;2023-11-22T03:36:58;9.45;;;5.40;;
66487;SDS011;53304;54.550;18.526;2023-11-22T03:39:23;8.68;;;5.00;;
66487;SDS011;53304;54.550;18.526;2023-11-22T03:41:54;9.68;;;5.45;;
66487;SDS011;53304;54.550;18.526;2023-11-22T03:44:19;8.88;;;5.00;;
66487;SDS011;53304;54.550;18.526;2023-11-22T03:46:45;9.18;;;5.20;;
66487;SDS011;53304;54.550;18.526;2023-11-22T03:49:12;10.23;;;5.13;;
66487;SDS011;53304;54.550;18.526;2023-11-22T03:51:42;8.95;;;4.97;;
66487;SDS011;53304;54.550;18.526;2023-11-22T03:54:10;9.48;;;4.85;;
66487;SDS011;53304;54.550;18.526;2023-11-22T03:56:37;8.55;;;4.90;;
66487;SDS011;53304;54.550;18.526;2023-11-22T03:59:03;7.70;;;4.47;;
66487;SDS011;53304;54.550;18.526;2023-11-22T04:01:33;8.75;;;4.90;;
66487;SDS011;53304;54.550;18.526;2023-11-22T04:04:03;8.05;;;4.50;;
66487;SDS011;53304;54.550;18.526;2023-11-22T04:06:31;9.32;;;4.70;;
66487;SDS011;53304;54.550;18.526;2023-11-22T04:09:01;8.77;;;4.63;;
66487;SDS011;53304;54.550;18.526;2023-11-22T04:11:27;8.40;;;4.60;;
66487;SDS011;53304;54.550;18.526;2023-11-22T04:13:58;7.75;;;4.30;;
66487;SDS011;53304;54.550;18.526;2023-11-22T04:16:26;7.80;;;4.38;;
66487;SDS011;53304;54.550;18.526;2023-11-22T04:18:54;7.63;;;4.30;;
66487;SDS011;53304;54.550;18.526;2023-11-22T04:21:26;8.43;;;4.40;;
66487;SDS011;53304;54.550;18.526;2023-11-22T04:23:54;9.30;;;4.05;;
66487;SDS011;53304;54.550;18.526;2023-11-22T04:26:21;8.10;;;4.53;;
66487;SDS011;53304;54.550;18.526;2023-11-22T04:28:50;8.35;;;4.38;;
66487;SDS011;53304;54.550;18.526;2023-11-22T04:31:18;9.25;;;4.30;;
66487;SDS011;53304;54.550;18.526;2023-11-22T04:33:46;8.27;;;4.25;;
66487;SDS011;53304;54.550;18.526;2023-11-22T04:36:11;7.80;;;4.18;;
66487;SDS011;53304;54.550;18.526;2023-11-22T04:38:37;7.82;;;4.30;;
66487;SDS011;53304;54.550;18.526;2023-11-22T04:41:03;7.10;;;4.20;;
66487;SDS011;53304;54.550;18.526;2023-11-22T04:43:28;7.93;;;4.60;;
66487;SDS011;53304;54.550;18.526;2023-11-22T04:45:53;6.00;;;3.90;;
66487;SDS011;53304;54.550;18.526;2023-11-22T04:48:22;8.00;;;4.53;;
66487;SDS011;53304;54.550;18.526;2023-11-22T04:50:47;8.50;;;4.63;;
66487;SDS011;53304;54.550;18.526;2023-11-22T04:53:15;7.88;;;4.50;;
66487;SDS011;53304;54.550;18.526;2023-11-22T04:55:42;8.90;;;4.68;;
66487;SDS011;53304;54.550;18.526;2023-11-22T04:58:10;9.07;;;4.60;;
66487;SDS011;53304;54.550;18.526;2023-11-22T05:00:36;7.53;;;4.45;;
66487;SDS011;53304;54.550;18.526;2023-11-22T05:03:01;7.30;;;4.13;;
66487;SDS011;53304;54.550;18.526;2023-11-22T05:05:32;6.80;;;3.97;;
66487;SDS011;53304;54.550;18.526;2023-11-22T05:08:00;8.13;;;4.07;;
66487;SDS011;53304;54.550;18.526;2023-11-22T05:10:28;7.00;;;4.03;;
66487;SDS011;53304;54.550;18.526;2023-11-22T05:12:56;8.90;;;4.13;;
66487;SDS011;53304;54.550;18.526;2023-11-22T05:15:24;7.10;;;4.07;;
66487;SDS011;53304;54.550;18.526;2023-11-22T05:17:50;8.63;;;4.07;;
66487;SDS011;53304;54.550;18.526;2023-11-22T05:20:15;9.20;;;4.30;;
66487;SDS011;53304;54.550;18.526;2023-11-22T05:22:41;5.53;;;3.65;;
66487;SDS011;53304;54.550;18.526;2023-11-22T05:25:08;7.40;;;3.95;;
66487;SDS011;53304;54.550;18.526;2023-11-22T05:27:34;7.57;;;3.55;;
66487;SDS011;53304;54.550;18.526;2023-11-22T05:30:06;5.57;;;3.53;;
66487;SDS011;53304;54.550;18.526;2023-11-22T05:32:36;6.72;;;3.60;;
66487;SDS011;53304;54.550;18.526;2023-11-22T05:35:04;6.20;;;3.80;;
66487;SDS011;53304;54.550;18.526;2023-11-22T05:37:37;5.60;;;3.20;;
66487;SDS011;53304;54.550;18.526;2023-11-22T05:40:02;7.22;;;3.88;;
66487;SDS011;53304;54.550;18.526;2023-11-22T05:42:34;7.80;;;4.15;;
66487;SDS011;53304;54.550;18.526;2023-11-22T05:45:02;6.90;;;3.67;;
66487;SDS011;53304;54.550;18.526;2023-11-22T05:47:32;7.35;;;3.70;;
66487;SDS011;53304;54.550;18.526;2023-11-22T05:49:58;6.32;;;3.42;;
66487;SDS011;53304;54.550;18.526;2023-11-22T05:52:23;6.88;;;3.70;;
66487;SDS011;53304;54.550;18.526;2023-11-22T05:54:51;7.25;;;3.88;;
66487;SDS011;53304;54.550;18.526;2023-11-22T05:57:16;6.75;;;3.60;;
66487;SDS011;53304;54.550;18.526;2023-11-22T05:59:44;7.97;;;3.60;;
66487;SDS011;53304;54.550;18.526;2023-11-22T06:02:14;6.50;;;3.53;;
66487;SDS011;53304;54.550;18.526;2023-11-22T06:04:44;5.82;;;3.17;;
66487;SDS011;53304;54.550;18.526;2023-11-22T06:07:10;6.47;;;3.60;;
66487;SDS011;53304;54.550;18.526;2023-11-22T06:09:40;7.13;;;3.50;;
66487;SDS011;53304;54.550;18.526;2023-11-22T06:12:05;6.28;;;3.30;;
66487;SDS011;53304;54.550;18.526;2023-11-22T06:14:31;5.40;;;3.25;;
66487;SDS011;53304;54.550;18.526;2023-11-22T06:16:57;6.93;;;3.65;;
66487;SDS011;53304;54.550;18.526;2023-11-22T06:19:22;6.10;;;3.47;;
66487;SDS011;53304;54.550;18.526;2023-11-22T06:21:48;6.53;;;3.83;;
66487;SDS011;53304;54.550;18.526;2023-11-22T06:24:13;8.02;;;3.95;;
66487;SDS011;53304;54.550;18.526;2023-11-22T06:26:46;6.97;;;3.95;;
66487;SDS011;53304;54.550;18.526;2023-11-22T06:29:17;7.68;;;3.60;;
66487;SDS011;53304;54.550;18.526;2023-11-22T06:31:48;8.35;;;4.35;;
66487;SDS011;53304;54.550;18.526;2023-11-22T06:34:15;14.45;;;4.20;;
66487;SDS011;53304;54.550;18.526;2023-11-22T06:36:43;8.82;;;3.72;;
66487;SDS011;53304;54.550;18.526;2023-11-22T06:39:08;18.17;;;4.25;;
66487;SDS011;53304;54.550;18.526;2023-11-22T06:41:40;11.85;;;4.18;;
66487;SDS011;53304;54.550;18.526;2023-11-22T06:44:08;10.05;;;4.40;;
66487;SDS011;53304;54.550;18.526;2023-11-22T06:46:35;12.02;;;4.78;;
66487;SDS011;53304;54.550;18.526;2023-11-22T06:49:03;12.68;;;5.15;;
66487;SDS011;53304;54.550;18.526;2023-11-22T06:51:28;10.98;;;4.25;;
66487;SDS011;53304;54.550;18.526;2023-11-22T06:53:53;7.63;;;4.30;;
66487;SDS011;53304;54.550;18.526;2023-11-22T06:56:21;9.20;;;4.60;;
66487;SDS011;53304;54.550;18.526;2023-11-22T06:58:50;12.93;;;4.63;;
66487;SDS011;53304;54.550;18.526;2023-11-22T07:01:18;19.20;;;5.25;;
66487;SDS011;53304;54.550;18.526;2023-11-22T07:03:43;18.75;;;5.38;;
66487;SDS011;53304;54.550;18.526;2023-11-22T07:06:08;17.35;;;5.32;;
66487;SDS011;53304;54.550;18.526;2023-11-22T07:08:34;18.55;;;5.38;;
66487;SDS011;53304;54.550;18.526;2023-11-22T07:11:02;14.10;;;5.55;;
66487;SDS011;53304;54.550;18.526;2023-11-22T07:13:28;22.63;;;5.10;;
66487;SDS011;53304;54.550;18.526;2023-11-22T07:15:56;21.17;;;5.60;;
66487;SDS011;53304;54.550;18.526;2023-11-22T07:18:25;23.60;;;4.78;;
66487;SDS011;53304;54.550;18.526;2023-11-22T07:20:55;11.32;;;4.65;;
66487;SDS011;53304;54.550;18.526;2023-11-22T07:23:24;12.15;;;4.85;;
66487;SDS011;53304;54.550;18.526;2023-11-22T07:25:54;12.30;;;4.90;;
66487;SDS011;53304;54.550;18.526;2023-11-22T07:28:20;15.63;;;4.60;;
66487;SDS011;53304;54.550;18.526;2023-11-22T07:30:51;10.82;;;4.65;;
66487;SDS011;53304;54.550;18.526;2023-11-22T07:33:17;15.15;;;4.78;;
66487;SDS011;53304;54.550;18.526;2023-11-22T07:35:42;11.95;;;4.68;;
66487;SDS011;53304;54.550;18.526;2023-11-22T07:38:11;13.02;;;4.72;;
66487;SDS011;53304;54.550;18.526;2023-11-22T07:40:39;8.90;;;4.47;;
66487;SDS011;53304;54.550;18.526;2023-11-22T07:43:04;7.60;;;4.13;;
66487;SDS011;53304;54.550;18.526;2023-11-22T07:45:32;10.07;;;3.78;;
66487;SDS011;53304;54.550;18.526;2023-11-22T07:48:02;8.77;;;4.15;;
66487;SDS011;53304;54.550;18.526;2023-11-22T07:50:30;7.72;;;3.85;;
66487;SDS011;53304;54.550;18.526;2023-11-22T07:52:58;8.88;;;4.03;;
66487;SDS011;53304;54.550;18.526;2023-11-22T07:55:23;8.90;;;4.30;;
66487;SDS011;53304;54.550;18.526;2023-11-22T07:57:51;8.60;;;4.10;;
66487;SDS011;53304;54.550;18.526;2023-11-22T08:00:18;10.00;;;4.28;;
66487;SDS011;53304;54.550;18.526;2023-11-22T08:02:47;7.50;;;3.85;;
66487;SDS011;53304;54.550;18.526;2023-11-22T08:05:13;11.95;;;4.35;;
66487;SDS011;53304;54.550;18.526;2023-11-22T08:07:40;8.32;;;4.50;;
66487;SDS011;53304;54.550;18.526;2023-11-22T08:10:11;8.85;;;4.63;;
66487;SDS011;53304;54.550;18.526;2023-11-22T08:12:46;11.93;;;4.95;;
66487;SDS011;53304;54.550;18.526;2023-11-22T08:15:18;10.38;;;4.68;;
66487;SDS011;53304;54.550;18.526;2023-11-22T08:17:44;10.32;;;5.63;;
66487;SDS011;53304;54.550;18.526;2023-11-22T08:20:10;10.13;;;5.82;;
66487;SDS011;53304;54.550;18.526;2023-11-22T08:22:41;11.00;;;5.75;;
66487;SDS011;53304;54.550;18.526;2023-11-22T08:25:10;11.48;;;6.45;;
66487;SDS011;53304;54.550;18.526;2023-11-22T08:27:40;11.98;;;6.15;;
66487;SDS011;53304;54.550;18.526;2023-11-22T08:30:09;11.90;;;5.40;;
66487;SDS011;53304;54.550;18.526;2023-11-22T08:32:44;9.52;;;5.43;;
66487;SDS011;53304;54.550;18.526;2023-11-22T08:35:18;13.63;;;5.75;;
66487;SDS011;53304;54.550;18.526;2023-11-22T08:37:47;11.63;;;5.85;;
66487;SDS011;53304;54.550;18.526;2023-11-22T08:40:13;10.05;;;5.32;;
66487;SDS011;53304;54.550;18.526;2023-11-22T08:42:41;12.63;;;5.90;;
66487;SDS011;53304;54.550;18.526;2023-11-22T08:45:07;9.68;;;5.20;;
66487;SDS011;53304;54.550;18.526;2023-11-22T08:47:36;12.30;;;5.78;;
66487;SDS011;53304;54.550;18.526;2023-11-22T08:50:01;9.23;;;5.05;;
66487;SDS011;53304;54.550;18.526;2023-11-22T08:52:28;12.77;;;5.20;;
66487;SDS011;53304;54.550;18.526;2023-11-22T08:54:56;19.15;;;6.15;;
66487;SDS011;53304;54.550;18.526;2023-11-22T08:57:21;30.38;;;6.75;;
66487;SDS011;53304;54.550;18.526;2023-11-22T08:59:46;16.48;;;6.53;;
66487;SDS011;53304;54.550;18.526;2023-11-22T09:02:12;14.18;;;6.53;;
66487;SDS011;53304;54.550;18.526;2023-11-22T09:04:39;19.73;;;6.45;;
66487;SDS011;53304;54.550;18.526;2023-11-22T09:07:06;20.20;;;6.75;;
66487;SDS011;53304;54.550;18.526;2023-11-22T09:09:35;16.58;;;5.60;;
66487;SDS011;53304;54.550;18.526;2023-11-22T09:12:07;14.48;;;5.85;;
66487;SDS011;53304;54.550;18.526;2023-11-22T09:14:38;14.15;;;5.82;;
66487;SDS011;53304;54.550;18.526;2023-11-22T09:17:05;15.02;;;5.50;;
66487;SDS011;53304;54.550;18.526;2023-11-22T09:19:34;17.52;;;6.00;;
66487;SDS011;53304;54.550;18.526;2023-11-22T09:22:01;14.73;;;6.03;;
66487;SDS011;53304;54.550;18.526;2023-11-22T09:24:28;13.65;;;5.55;;
66487;SDS011;53304;54.550;18.526;2023-11-22T09:26:57;11.98;;;5.43;;
66487;SDS011;53304;54.550;18.526;2023-11-22T09:29:26;12.98;;;5.63;;
66487;SDS011;53304;54.550;18.526;2023-11-22T09:31:51;15.02;;;5.75;;
66487;SDS011;53304;54.550;18.526;2023-11-22T09:34:17;14.52;;;5.53;;
66487;SDS011;53304;54.550;18.526;2023-11-22T09:36:43;11.45;;;5.30;;
66487;SDS011;53304;54.550;18.526;2023-11-22T09:39:09;11.70;;;5.32;;
66487;SDS011;53304;54.550;18.526;2023-11-22T09:41:35;10.60;;;5.22;;
66487;SDS011;53304;54.550;18.526;2023-11-22T09:44:00;12.73;;;5.32;;
66487;SDS011;53304;54.550;18.526;2023-11-22T09:46:26;11.40;;;5.22;;
66487;SDS011;53304;54.550;18.526;2023-11-22T09:48:56;10.40;;;5.40;;
66487;SDS011;53304;54.550;18.526;2023-11-22T09:51:23;9.88;;;5.00;;
66487;SDS011;53304;54.550;18.526;2023-11-22T09:56:30;9.13;;;4.88;;
66487;SDS011;53304;54.550;18.526;2023-11-22T09:59:01;8.25;;;4.40;;
66487;SDS011;53304;54.550;18.526;2023-11-22T10:01:28;9.30;;;4.70;;
66487;SDS011;53304;54.550;18.526;2023-11-22T10:03:55;11.35;;;4.82;;
66487;SDS011;53304;54.550;18.526;2023-11-22T10:06:24;10.48;;;4.78;;
66487;SDS011;53304;54.550;18.526;2023-11-22T10:08:55;9.18;;;4.57;;
66487;SDS011;53304;54.550;18.526;2023-11-22T10:11:21;9.82;;;4.32;;
66487;SDS011;53304;54.550;18.526;2023-11-22T10:13:47;9.93;;;4.38;;
66487;SDS011;53304;54.550;18.526;2023-11-22T10:16:17;7.38;;;4.40;;
66487;SDS011;53304;54.550;18.526;2023-11-22T10:18:47;6.97;;;4.00;;
66487;SDS011;53304;54.550;18.526;2023-11-22T10:21:31;7.95;;;4.30;;
66487;SDS011;53304;54.550;18.526;2023-11-22T10:24:00;7.57;;;4.40;;
66487;SDS011;53304;54.550;18.526;2023-11-22T10:26:29;8.60;;;4.13;;
66487;SDS011;53304;54.550;18.526;2023-11-22T10:28:56;7.38;;;4.40;;
66487;SDS011;53304;54.550;18.526;2023-11-22T10:31:22;7.75;;;3.92;;
66487;SDS011;53304;54.550;18.526;2023-11-22T10:33:49;8.20;;;4.15;;
66487;SDS011;53304;54.550;18.526;2023-11-22T10:36:17;8.52;;;4.03;;
66487;SDS011;53304;54.550;18.526;2023-11-22T10:38:46;9.20;;;4.15;;
66487;SDS011;53304;54.550;18.526;2023-11-22T10:41:19;7.63;;;3.88;;
66487;SDS011;53304;54.550;18.526;2023-11-22T10:43:45;8.93;;;4.20;;
66487;SDS011;53304;54.550;18.526;2023-11-22T10:46:15;8.63;;;4.55;;
66487;SDS011;53304;54.550;18.526;2023-11-22T10:48:44;6.70;;;4.13;;
66487;SDS011;53304;54.550;18.526;2023-11-22T10:51:12;7.82;;;4.30;;
66487;SDS011;53304;54.550;18.526;2023-11-22T10:53:48;7.05;;;4.03;;
66487;SDS011;53304;54.550;18.526;2023-11-22T10:56:17;7.45;;;4.00;;
66487;SDS011;53304;54.550;18.526;2023-11-22T11:01:20;9.00;;;4.25;;
66487;SDS011;53304;54.550;18.526;2023-11-22T11:06:38;7.60;;;4.13;;
66487;SDS011;53304;54.550;18.526;2023-11-22T11:09:09;7.05;;;3.65;;
66487;SDS011;53304;54.550;18.526;2023-11-22T11:11:35;7.32;;;3.67;;
66487;SDS011;53304;54.550;18.526;2023-11-22T11:14:02;5.95;;;3.53;;
66487;SDS011;53304;54.550;18.526;2023-11-22T11:16:33;7.57;;;3.70;;
66487;SDS011;53304;54.550;18.526;2023-11-22T11:19:02;7.53;;;3.97;;
66487;SDS011;53304;54.550;18.526;2023-11-22T11:21:28;6.45;;;3.70;;
66487;SDS011;53304;54.550;18.526;2023-11-22T11:23:56;6.32;;;3.60;;
66487;SDS011;53304;54.550;18.526;2023-11-22T11:26:27;6.50;;;3.58;;
66487;SDS011;53304;54.550;18.526;2023-11-22T11:28:54;8.07;;;3.85;;
66487;SDS011;53304;54.550;18.526;2023-11-22T11:31:22;6.85;;;3.65;;
66487;SDS011;53304;54.550;18.526;2023-11-22T11:33:54;5.77;;;3.43;;
66487;SDS011;53304;54.550;18.526;2023-11-22T11:38:58;6.95;;;3.50;;
66487;SDS011;53304;54.550;18.526;2023-11-22T11:41:31;6.47;;;3.40;;
66487;SDS011;53304;54.550;18.526;2023-11-22T11:43:57;7.22;;;3.55;;
66487;SDS011;53304;54.550;18.526;2023-11-22T11:46:27;6.22;;;3.28;;
66487;SDS011;53304;54.550;18.526;2023-11-22T11:48:54;6.85;;;3.50;;
66487;SDS011;53304;54.550;18.526;2023-11-22T11:51:24;6.20;;;3.40;;
66487;SDS011;53304;54.550;18.526;2023-11-22T11:53:56;6.00;;;3.65;;
66487;SDS011;53304;54.550;18.526;2023-11-22T11:56:23;7.65;;;3.83;;
66487;SDS011;53304;54.550;18.526;2023-11-22T11:58:51;6.28;;;3.58;;
66487;SDS011;53304;54.550;18.526;2023-11-22T12:01:17;6.00;;;3.35;;
66487;SDS011;53304;54.550;18.526;2023-11-22T12:03:47;6.50;;;3.50;;
66487;SDS011;53304;54.550;18.526;2023-11-22T12:06:16;6.57;;;3.13;;
66487;SDS011;53304;54.550;18.526;2023-11-22T12:08:48;7.03;;;3.50;;
66487;SDS011;53304;54.550;18.526;2023-11-22T12:11:14;6.30;;;3.22;;
66487;SDS011;53304;54.550;18.526;2023-11-22T12:13:43;5.20;;;3.03;;
66487;SDS011;53304;54.550;18.526;2023-11-22T12:16:13;5.40;;;3.38;;
66487;SDS011;53304;54.550;18.526;2023-11-22T12:18:43;8.85;;;3.38;;
66487;SDS011;53304;54.550;18.526;2023-11-22T12:21:08;7.30;;;3.33;;
66487;SDS011;53304;54.550;18.526;2023-11-22T12:23:40;6.43;;;3.45;;
66487;SDS011;53304;54.550;18.526;2023-11-22T12:26:17;8.80;;;3.30;;
66487;SDS011;53304;54.550;18.526;2023-11-22T12:28:48;6.10;;;2.95;;
66487;SDS011;53304;54.550;18.526;2023-11-22T12:31:17;5.55;;;3.05;;
66487;SDS011;53304;54.550;18.526;2023-11-22T12:33:45;5.93;;;3.28;;
66487;SDS011;53304;54.550;18.526;2023-11-22T12:36:12;5.45;;;2.90;;
66487;SDS011;53304;54.550;18.526;2023-11-22T12:38:42;6.50;;;3.28;;
66487;SDS011;53304;54.550;18.526;2023-11-22T12:41:07;6.00;;;3.10;;
66487;SDS011;53304;54.550;18.526;2023-11-22T12:43:33;5.47;;;2.70;;
66487;SDS011;53304;54.550;18.526;2023-11-22T12:46:05;8.57;;;3.47;;
66487;SDS011;53304;54.550;18.526;2023-11-22T12:48:43;6.25;;;3.13;;
66487;SDS011;53304;54.550;18.526;2023-11-22T12:51:16;6.53;;;2.90;;
66487;SDS011;53304;54.550;18.526;2023-11-22T12:53:51;6.07;;;2.88;;
66487;SDS011;53304;54.550;18.526;2023-11-22T12:56:17;6.00;;;3.17;;
66487;SDS011;53304;54.550;18.526;2023-11-22T12:58:47;5.93;;;3.00;;
66487;SDS011;53304;54.550;18.526;2023-11-22T13:01:13;4.85;;;2.90;;
66487;SDS011;53304;54.550;18.526;2023-11-22T13:03:40;5.35;;;2.92;;
66487;SDS011;53304;54.550;18.526;2023-11-22T13:06:06;5.57;;;2.80;;
66487;SDS011;53304;54.550;18.526;2023-11-22T13:08:34;5.70;;;2.88;;
66487;SDS011;53304;54.550;18.526;2023-11-22T13:11:02;7.03;;;3.17;;
66487;SDS011;53304;54.550;18.526;2023-11-22T13:13:32;5.93;;;2.85;;
66487;SDS011;53304;54.550;18.526;2023-11-22T13:16:00;5.60;;;2.80;;
66487;SDS011;53304;54.550;18.526;2023-11-22T13:18:28;4.95;;;2.70;;
66487;SDS011;53304;54.550;18.526;2023-11-22T13:20:53;5.00;;;2.70;;
66487;SDS011;53304;54.550;18.526;2023-11-22T13:23:18;8.18;;;3.08;;
66487;SDS011;53304;54.550;18.526;2023-11-22T13:25:44;5.40;;;2.95;;
66487;SDS011;53304;54.550;18.526;2023-11-22T13:28:10;4.82;;;2.90;;
66487;SDS011;53304;54.550;18.526;2023-11-22T13:30:36;4.82;;;2.75;;
66487;SDS011;53304;54.550;18.526;2023-11-22T13:33:01;4.65;;;2.85;;
66487;SDS011;53304;54.550;18.526;2023-11-22T13:35:30;6.18;;;2.90;;
66487;SDS011;53304;54.550;18.526;2023-11-22T13:37:59;5.65;;;2.65;;
66487;SDS011;53304;54.550;18.526;2023-11-22T13:40:29;4.70;;;2.65;;
66487;SDS011;53304;54.550;18.526;2023-11-22T13:42:57;6.15;;;3.10;;
66487;SDS011;53304;54.550;18.526;2023-11-22T13:45:23;5.68;;;2.70;;
66487;SDS011;53304;54.550;18.526;2023-11-22T13:47:53;5.13;;;3.00;;
66487;SDS011;53304;54.550;18.526;2023-11-22T13:50:23;5.63;;;2.72;;
66487;SDS011;53304;54.550;18.526;2023-11-22T13:52:52;5.28;;;2.65;;
66487;SDS011;53304;54.550;18.526;2023-11-22T13:55:21;6.00;;;2.80;;
66487;SDS011;53304;54.550;18.526;2023-11-22T13:57:53;4.53;;;2.35;;
66487;SDS011;53304;54.550;18.526;2023-11-22T14:00:20;5.35;;;2.85;;
66487;SDS011;53304;54.550;18.526;2023-11-22T14:02:50;5.00;;;2.83;;
66487;SDS011;53304;54.550;18.526;2023-11-22T14:05:20;4.03;;;2.50;;
66487;SDS011;53304;54.550;18.526;2023-11-22T14:07:48;5.28;;;2.97;;
66487;SDS011;53304;54.550;18.526;2023-11-22T14:10:14;5.20;;;2.80;;
66487;SDS011;53304;54.550;18.526;2023-11-22T14:12:44;5.35;;;2.60;;
66487;SDS011;53304;54.550;18.526;2023-11-22T14:15:15;5.18;;;2.90;;
66487;SDS011;53304;54.550;18.526;2023-11-22T14:17:44;6.18;;;2.80;;
66487;SDS011;53304;54.550;18.526;2023-11-22T14:20:10;4.88;;;2.70;;
66487;SDS011;53304;54.550;18.526;2023-11-22T14:22:39;5.25;;;2.90;;
66487;SDS011;53304;54.550;18.526;2023-11-22T14:25:05;4.97;;;2.83;;
66487;SDS011;53304;54.550;18.526;2023-11-22T14:27:36;4.65;;;2.60;;
66487;SDS011;53304;54.550;18.526;2023-11-22T14:30:04;4.30;;;2.50;;
66487;SDS011;53304;54.550;18.526;2023-11-22T14:32:32;4.70;;;2.85;;
66487;SDS011;53304;54.550;18.526;2023-11-22T14:34:59;4.93;;;2.85;;
66487;SDS011;53304;54.550;18.526;2023-11-22T14:37:26;4.78;;;2.60;;
66487;SDS011;53304;54.550;18.526;2023-11-22T14:39:52;4.85;;;2.65;;
66487;SDS011;53304;54.550;18.526;2023-11-22T14:42:21;4.63;;;2.78;;
66487;SDS011;53304;54.550;18.526;2023-11-22T14:44:46;4.65;;;2.70;;